createdAt,value
2022-12-09T00:02:39.530Z,-3.40
2022-12-09T00:05:43.642Z,-3.40
2022-12-09T00:08:48.456Z,-3.40
2022-12-09T00:11:53.460Z,-3.30
2022-12-09T00:14:57.803Z,-3.40
2022-12-09T00:18:02.166Z,-3.30
2022-12-09T00:21:20.477Z,-3.10
2022-12-09T00:24:25.276Z,-3.20
2022-12-09T00:27:29.660Z,-3.00
2022-12-09T00:30:33.843Z,-2.90
2022-12-09T00:33:38.562Z,-2.80
2022-12-09T00:36:42.924Z,-2.90
2022-12-09T00:39:47.005Z,-2.90
2022-12-09T00:42:51.276Z,-3.00
2022-12-09T00:45:55.300Z,-3.00
2022-12-09T00:48:59.701Z,-3.00
2022-12-09T00:52:04.883Z,-3.00
2022-12-09T00:55:09.865Z,-2.90
2022-12-09T00:58:14.961Z,-2.80
2022-12-09T01:01:19.006Z,-2.60
2022-12-09T01:04:24.961Z,-2.10
2022-12-09T01:07:29.888Z,-2.00
2022-12-09T01:10:35.322Z,-1.80
2022-12-09T01:13:39.760Z,-1.80
2022-12-09T01:16:44.473Z,-1.80
2022-12-09T01:19:48.805Z,-1.70
2022-12-09T01:22:53.290Z,-1.70
2022-12-09T01:25:57.533Z,-1.60
2022-12-09T01:29:02.161Z,-1.50
2022-12-09T01:32:06.794Z,-1.40
2022-12-09T01:35:11.731Z,-1.30
2022-12-09T01:38:15.951Z,-1.30
2022-12-09T01:41:21.957Z,-1.30
2022-12-09T01:44:27.204Z,-1.20
2022-12-09T01:47:32.143Z,-1.10
2022-12-09T01:50:37.851Z,-1.10
2022-12-09T01:53:44.554Z,-1.10
2022-12-09T01:56:49.883Z,-1.10
2022-12-09T01:59:54.446Z,-1.10
2022-12-09T02:03:00.058Z,-1.20
2022-12-09T02:06:05.089Z,-1.20
2022-12-09T02:09:10.333Z,-1.10
2022-12-09T02:12:27.982Z,-1.10
2022-12-09T02:15:48.965Z,-1.20
2022-12-09T02:18:56.736Z,-1.10
2022-12-09T02:22:02.344Z,-1.20
2022-12-09T02:25:34.320Z,-1.30
2022-12-09T02:28:39.182Z,-1.50
2022-12-09T02:31:59.442Z,-1.40
2022-12-09T02:35:12.495Z,-1.30
2022-12-09T02:38:20.979Z,-1.30
2022-12-09T02:41:27.678Z,-1.50
2022-12-09T02:44:33.115Z,-1.70
2022-12-09T02:47:40.790Z,-1.80
2022-12-09T02:50:49.521Z,-1.90
2022-12-09T02:53:57.295Z,-2.10
2022-12-09T02:57:10.558Z,-2.30
2022-12-09T03:00:15.661Z,-2.60
2022-12-09T03:03:20.486Z,-2.70
2022-12-09T03:06:29.015Z,-2.70
2022-12-09T03:09:34.959Z,-2.80
2022-12-09T03:12:41.249Z,-2.90
2022-12-09T03:15:49.508Z,-3.00
2022-12-09T03:19:00.549Z,-3.20
2022-12-09T03:22:09.789Z,-3.40
2022-12-09T03:25:17.335Z,-3.70
2022-12-09T03:28:24.532Z,-3.80
2022-12-09T03:31:32.496Z,-3.90
2022-12-09T03:34:39.043Z,-3.90
2022-12-09T03:37:44.162Z,-3.90
2022-12-09T03:40:51.348Z,-3.90
2022-12-09T03:43:59.200Z,-3.90
2022-12-09T03:47:04.460Z,-4.00
2022-12-09T03:50:09.697Z,-4.00
2022-12-09T03:53:16.130Z,-4.10
2022-12-09T03:56:27.796Z,-4.20
2022-12-09T03:59:34.298Z,-4.30
2022-12-09T04:02:39.493Z,-4.40
2022-12-09T04:05:44.069Z,-4.50
2022-12-09T04:08:48.184Z,-4.70
2022-12-09T04:11:52.605Z,-4.80
2022-12-09T04:14:56.958Z,-4.80
2022-12-09T04:18:01.672Z,-4.70
2022-12-09T04:21:09.938Z,-4.90
2022-12-09T04:24:14.914Z,-4.90
2022-12-09T04:27:19.613Z,-4.90
2022-12-09T04:30:23.770Z,-4.90
2022-12-09T04:33:28.318Z,-5.10
2022-12-09T04:36:32.674Z,-5.00
2022-12-09T04:39:37.425Z,-5.00
2022-12-09T04:42:42.358Z,-5.00
2022-12-09T04:45:46.774Z,-5.00
2022-12-09T04:48:51.097Z,-5.00
2022-12-09T04:51:55.616Z,-4.90
2022-12-09T04:55:00.170Z,-4.70
2022-12-09T04:58:05.171Z,-4.60
2022-12-09T05:01:10.537Z,-4.30
2022-12-09T05:04:15.149Z,-4.00
2022-12-09T05:07:20.287Z,-3.90
2022-12-09T05:10:25.021Z,-3.80
2022-12-09T05:13:29.825Z,-3.80
2022-12-09T05:16:34.995Z,-3.90
2022-12-09T05:19:39.926Z,-3.90
2022-12-09T05:22:44.623Z,-3.80
2022-12-09T05:25:49.149Z,-3.80
2022-12-09T05:28:53.742Z,-3.80
2022-12-09T05:31:58.187Z,-3.70
2022-12-09T05:35:02.661Z,-3.60
2022-12-09T05:38:07.390Z,-3.50
2022-12-09T05:41:11.483Z,-3.30
2022-12-09T05:44:15.862Z,-3.20
2022-12-09T05:47:20.157Z,-3.20
2022-12-09T05:50:25.678Z,-3.00
2022-12-09T05:53:30.983Z,-2.70
2022-12-09T05:56:35.504Z,-2.60
2022-12-09T05:59:39.857Z,-2.70
2022-12-09T06:02:44.516Z,-2.60
2022-12-09T06:05:49.573Z,-2.40
2022-12-09T06:08:55.075Z,-2.40
2022-12-09T06:11:59.980Z,-2.40
2022-12-09T06:15:04.119Z,-2.40
2022-12-09T06:18:08.858Z,-2.60
2022-12-09T06:21:14.652Z,-2.60
2022-12-09T06:24:19.464Z,-2.70
2022-12-09T06:27:24.045Z,-2.60
2022-12-09T06:30:28.647Z,-2.50
2022-12-09T06:36:57.226Z,-2.60
2022-12-09T06:40:02.017Z,-2.70
2022-12-09T06:43:06.247Z,-2.70
2022-12-09T06:46:12.260Z,-2.80
2022-12-09T06:49:17.385Z,-2.80
2022-12-09T06:52:22.159Z,-2.80
2022-12-09T06:55:26.807Z,-2.70
2022-12-09T06:58:31.589Z,-2.40
2022-12-09T07:01:36.731Z,-2.30
2022-12-09T07:04:41.466Z,-2.60
2022-12-09T07:07:49.955Z,-2.50
2022-12-09T07:10:56.961Z,-2.60
2022-12-09T07:14:02.124Z,-2.70
2022-12-09T07:17:07.037Z,-2.60
2022-12-09T07:20:11.835Z,-2.60
2022-12-09T07:23:16.606Z,-2.60
2022-12-09T07:26:21.448Z,-2.50
2022-12-09T07:29:26.483Z,-2.40
2022-12-09T07:32:31.576Z,-2.30
2022-12-09T07:35:36.506Z,-2.20
2022-12-09T07:38:41.019Z,-2.00
2022-12-09T07:41:46.086Z,-2.00
2022-12-09T07:44:50.398Z,-2.00
2022-12-09T07:47:55.329Z,-1.80
2022-12-09T07:51:00.906Z,-1.80
2022-12-09T07:54:05.462Z,-1.70
2022-12-09T07:57:10.051Z,-1.60
2022-12-09T08:00:14.745Z,-1.60
2022-12-09T08:03:19.286Z,-1.50
2022-12-09T08:06:25.134Z,-1.40
2022-12-09T08:09:30.448Z,-1.30
2022-12-09T08:12:34.943Z,-1.20
2022-12-09T08:15:39.421Z,-1.10
2022-12-09T08:18:44.032Z,-1.00
2022-12-09T08:21:54.156Z,-0.90
2022-12-09T08:24:59.311Z,-0.80
2022-12-09T08:28:04.119Z,-0.70
2022-12-09T08:31:10.271Z,-0.70
2022-12-09T08:34:15.368Z,-0.60
2022-12-09T08:37:19.549Z,-0.60
2022-12-09T08:40:24.621Z,-0.40
2022-12-09T08:43:29.055Z,-0.30
2022-12-09T08:46:34.137Z,-0.10
2022-12-09T08:49:39.408Z,-0.10
2022-12-09T08:52:44.358Z,-0.20
2022-12-09T08:55:49.069Z,-0.10
2022-12-09T08:58:54.090Z,0.00
2022-12-09T09:01:58.569Z,-0.10
2022-12-09T09:05:03.484Z,0.00
2022-12-09T09:08:08.305Z,0.00
2022-12-09T09:11:17.785Z,0.00
2022-12-09T09:14:22.826Z,0.00
2022-12-09T09:17:27.654Z,0.10
2022-12-09T09:20:32.836Z,0.20
2022-12-09T09:23:37.507Z,0.30
2022-12-09T09:26:42.551Z,0.40
2022-12-09T09:29:47.590Z,0.50
2022-12-09T09:32:51.967Z,0.50
2022-12-09T09:35:57.807Z,0.50
2022-12-09T09:39:02.303Z,0.50
2022-12-09T09:42:08.883Z,0.60
2022-12-09T09:45:17.184Z,0.60
2022-12-09T09:48:25.293Z,0.60
2022-12-09T09:51:31.715Z,0.60
2022-12-09T09:54:37.020Z,0.70
2022-12-09T09:57:47.872Z,0.60
2022-12-09T10:01:05.144Z,0.70
2022-12-09T10:04:14.617Z,0.80
2022-12-09T10:07:31.344Z,0.90
2022-12-09T10:10:47.616Z,0.90
2022-12-09T10:14:01.182Z,1.00
2022-12-09T10:17:08.982Z,1.20
2022-12-09T10:20:19.044Z,1.40
2022-12-09T10:23:24.394Z,1.40
2022-12-09T10:26:30.590Z,1.50
2022-12-09T10:29:40.257Z,1.50
2022-12-09T10:32:45.076Z,1.40
2022-12-09T10:35:50.282Z,1.40
2022-12-09T10:38:54.846Z,1.40
2022-12-09T10:42:18.918Z,1.50
2022-12-09T10:45:23.814Z,1.50
2022-12-09T10:48:33.340Z,1.60
2022-12-09T10:51:39.134Z,1.50
2022-12-09T10:54:44.875Z,1.50
2022-12-09T10:57:49.259Z,1.30
2022-12-09T11:01:02.999Z,1.40
2022-12-09T11:04:12.490Z,1.40
2022-12-09T11:07:19.016Z,1.20
2022-12-09T11:10:25.441Z,1.30
2022-12-09T11:13:37.282Z,1.30
2022-12-09T11:16:42.503Z,1.50
2022-12-09T11:19:49.766Z,1.90
2022-12-09T11:23:01.738Z,1.90
2022-12-09T11:26:07.738Z,1.90
2022-12-09T11:29:19.378Z,2.00
2022-12-09T11:32:23.898Z,1.80
2022-12-09T11:35:48.760Z,1.80
2022-12-09T11:38:54.024Z,1.80
2022-12-09T11:42:17.607Z,1.80
2022-12-09T11:45:30.358Z,1.80
2022-12-09T11:48:41.714Z,1.70
2022-12-09T11:52:00.015Z,1.80
2022-12-09T11:55:16.572Z,1.80
2022-12-09T11:58:29.155Z,1.80
2022-12-09T12:01:42.683Z,1.80
2022-12-09T12:05:02.856Z,1.80
2022-12-09T12:08:16.240Z,1.80
2022-12-09T12:11:29.057Z,1.80
2022-12-09T12:14:35.559Z,1.90
2022-12-09T12:17:46.284Z,2.20
2022-12-09T12:21:01.364Z,2.90
2022-12-09T12:24:11.540Z,2.90
2022-12-09T12:27:28.395Z,2.90
2022-12-09T12:30:55.520Z,2.90
2022-12-09T12:34:23.382Z,3.60
2022-12-09T12:37:27.217Z,3.80
2022-12-09T12:40:40.504Z,3.60
2022-12-09T12:44:09.477Z,4.50
2022-12-09T12:47:18.067Z,4.90
2022-12-09T12:50:31.096Z,5.50
2022-12-09T12:53:40.838Z,5.40
2022-12-09T12:57:08.061Z,5.70
2022-12-09T13:00:16.194Z,5.80
2022-12-09T13:03:20.803Z,5.90
2022-12-09T13:06:44.288Z,5.70
2022-12-09T13:09:48.373Z,5.10
2022-12-09T13:12:55.143Z,4.00
2022-12-09T13:16:08.396Z,3.20
2022-12-09T13:19:16.220Z,2.80
2022-12-09T13:22:21.923Z,2.60
2022-12-09T13:25:29.537Z,2.30
2022-12-09T13:28:42.946Z,2.00
2022-12-09T13:31:53.430Z,2.00
2022-12-09T13:35:06.429Z,2.00
2022-12-09T13:38:40.653Z,1.90
2022-12-09T13:42:04.146Z,1.90
2022-12-09T13:45:16.731Z,1.60
2022-12-09T13:48:20.806Z,1.60
2022-12-09T13:51:27.445Z,1.50
2022-12-09T13:54:31.999Z,1.40
2022-12-09T13:57:41.715Z,1.50
2022-12-09T14:01:02.823Z,1.40
2022-12-09T14:04:18.464Z,1.40
2022-12-09T14:07:29.127Z,1.40
2022-12-09T14:10:39.032Z,1.30
2022-12-09T14:13:43.234Z,1.30
2022-12-09T14:16:47.795Z,1.30
2022-12-09T14:19:53.584Z,1.30
2022-12-09T14:23:07.038Z,1.30
2022-12-09T14:26:31.248Z,1.20
2022-12-09T14:29:53.148Z,1.20
2022-12-09T14:32:57.406Z,1.20
2022-12-09T14:36:16.718Z,1.20
2022-12-09T14:39:25.198Z,1.20
2022-12-09T14:42:42.597Z,1.20
2022-12-09T14:45:53.082Z,1.20
2022-12-09T14:48:59.308Z,1.20
2022-12-09T14:52:09.127Z,1.20
2022-12-09T14:55:15.272Z,1.20
2022-12-09T14:58:21.099Z,1.10
2022-12-09T15:01:25.553Z,1.10
2022-12-09T15:04:31.739Z,1.20
2022-12-09T15:07:37.569Z,1.10
2022-12-09T15:10:45.040Z,1.10
2022-12-09T15:13:51.390Z,1.10
2022-12-09T15:16:55.960Z,1.10
2022-12-09T15:20:01.456Z,1.00
2022-12-09T15:23:15.350Z,1.10
2022-12-09T15:26:21.322Z,1.10
2022-12-09T15:29:33.387Z,1.10
2022-12-09T15:32:38.532Z,1.10
2022-12-09T15:35:43.739Z,1.10
2022-12-09T15:38:50.878Z,1.10
2022-12-09T15:42:18.056Z,1.00
2022-12-09T15:45:24.238Z,1.10
2022-12-09T15:48:32.784Z,1.10
2022-12-09T15:51:37.992Z,1.10
2022-12-09T15:54:43.342Z,1.10
2022-12-09T15:57:49.324Z,1.10
2022-12-09T16:00:54.163Z,1.10
2022-12-09T16:03:59.465Z,1.10
2022-12-09T16:07:07.654Z,1.10
2022-12-09T16:10:14.915Z,1.10
2022-12-09T16:13:21.172Z,1.10
2022-12-09T16:16:26.788Z,1.10
2022-12-09T16:19:31.305Z,1.20
2022-12-09T16:22:35.270Z,1.20
2022-12-09T16:25:43.368Z,1.20
2022-12-09T16:28:53.832Z,1.20
2022-12-09T16:32:24.631Z,1.20
2022-12-09T16:35:29.110Z,1.20
2022-12-09T16:38:34.571Z,1.20
2022-12-09T16:41:51.163Z,1.30
2022-12-09T16:45:14.130Z,1.30
2022-12-09T16:48:19.194Z,1.30
2022-12-09T16:51:24.733Z,1.20
2022-12-09T16:54:28.676Z,1.30
2022-12-09T16:57:32.632Z,1.30
2022-12-09T17:00:37.331Z,1.30
2022-12-09T17:03:44.446Z,1.30
2022-12-09T17:06:48.781Z,1.30
2022-12-09T17:09:53.067Z,1.30
2022-12-09T17:12:57.353Z,1.30
2022-12-09T17:16:01.863Z,1.20
2022-12-09T17:19:06.638Z,1.20
2022-12-09T17:22:10.844Z,1.20
2022-12-09T17:25:15.069Z,1.30
2022-12-09T17:28:19.717Z,1.30
2022-12-09T17:31:24.752Z,1.30
2022-12-09T17:34:29.264Z,1.30
2022-12-09T17:37:33.353Z,1.30
2022-12-09T17:40:38.424Z,1.40
2022-12-09T17:43:43.029Z,1.40
2022-12-09T17:46:48.134Z,1.40
2022-12-09T17:49:52.725Z,1.40
2022-12-09T17:52:56.961Z,1.50
2022-12-09T17:56:04.792Z,1.50
2022-12-09T17:59:11.743Z,1.50
2022-12-09T18:02:16.235Z,1.50
2022-12-09T18:05:20.751Z,1.60
2022-12-09T18:08:25.364Z,1.60
2022-12-09T18:11:30.003Z,1.50
2022-12-09T18:14:34.488Z,1.60
2022-12-09T18:17:38.568Z,1.60
2022-12-09T18:20:43.171Z,1.50
2022-12-09T18:23:48.468Z,1.60
2022-12-09T18:26:52.919Z,1.50
2022-12-09T18:29:57.496Z,1.60
2022-12-09T18:33:02.159Z,1.60
2022-12-09T18:36:07.961Z,1.50
2022-12-09T18:39:12.008Z,1.60
2022-12-09T18:42:17.696Z,1.60
2022-12-09T18:45:21.936Z,1.60
2022-12-09T18:48:26.786Z,1.60
2022-12-09T18:51:32.637Z,1.60
2022-12-09T18:54:36.827Z,1.50
2022-12-09T18:57:41.581Z,1.50
2022-12-09T19:00:45.762Z,1.50
2022-12-09T19:03:50.863Z,1.50
2022-12-09T19:06:56.800Z,1.50
2022-12-09T19:10:01.328Z,1.50
2022-12-09T19:13:06.668Z,1.50
2022-12-09T19:16:10.796Z,1.50
2022-12-09T19:19:16.907Z,1.50
2022-12-09T19:22:21.322Z,1.40
2022-12-09T19:25:25.819Z,1.40
2022-12-09T19:28:30.146Z,1.40
2022-12-09T19:31:36.292Z,1.40
2022-12-09T19:34:40.656Z,1.50
2022-12-09T19:37:45.193Z,1.40
2022-12-09T19:40:50.031Z,1.40
2022-12-09T19:43:58.089Z,1.40
2022-12-09T19:47:02.514Z,1.50
2022-12-09T19:50:07.629Z,1.40
2022-12-09T19:53:12.172Z,1.20
2022-12-09T19:56:18.184Z,1.30
2022-12-09T19:59:23.114Z,1.20
2022-12-09T20:02:28.064Z,1.20
2022-12-09T20:05:32.933Z,1.10
2022-12-09T20:08:37.933Z,1.20
2022-12-09T20:11:42.330Z,1.10
2022-12-09T20:14:47.934Z,1.20
2022-12-09T20:17:53.798Z,1.20
2022-12-09T20:21:05.307Z,1.20
2022-12-09T20:24:10.685Z,1.20
2022-12-09T20:27:15.538Z,1.10
2022-12-09T20:30:21.307Z,1.20
2022-12-09T20:33:29.495Z,1.20
2022-12-09T20:36:26.289Z,1.20
2022-12-09T20:39:31.102Z,1.20
2022-12-09T20:42:37.864Z,1.20
2022-12-09T20:45:44.019Z,1.20
2022-12-09T20:48:49.543Z,1.30
2022-12-09T20:51:55.908Z,1.30
2022-12-09T20:55:01.680Z,1.30
2022-12-09T20:58:06.790Z,1.20
2022-12-09T21:01:15.948Z,1.30
2022-12-09T21:04:21.016Z,1.30
2022-12-09T21:07:26.278Z,1.30
2022-12-09T21:10:33.536Z,1.40
2022-12-09T21:13:41.658Z,1.30
2022-12-09T21:16:47.431Z,1.40
2022-12-09T21:19:55.144Z,1.30
2022-12-09T21:23:32.752Z,1.40
2022-12-09T21:26:29.980Z,1.30
2022-12-09T21:29:34.571Z,1.40
2022-12-09T21:32:39.453Z,1.40
2022-12-09T21:35:45.081Z,1.30
2022-12-09T21:38:49.642Z,1.30
2022-12-09T21:41:53.856Z,1.30
2022-12-09T21:44:59.185Z,1.40
2022-12-09T21:48:03.801Z,1.30
2022-12-09T21:51:08.333Z,1.30
2022-12-09T21:54:13.644Z,1.30
2022-12-09T21:57:18.202Z,1.30
2022-12-09T22:00:22.499Z,1.40
2022-12-09T22:03:26.667Z,1.30
2022-12-09T22:06:30.800Z,1.30
2022-12-09T22:09:35.292Z,1.40
2022-12-09T22:12:40.180Z,1.50
2022-12-09T22:15:44.673Z,1.50
2022-12-09T22:18:49.928Z,1.40
2022-12-09T22:21:53.955Z,1.40
2022-12-09T22:24:58.392Z,1.40
2022-12-09T22:28:03.408Z,1.40
2022-12-09T22:31:12.743Z,1.30
2022-12-09T22:34:18.551Z,1.40
2022-12-09T22:37:43.137Z,1.30
2022-12-09T22:40:47.491Z,1.30
2022-12-09T22:43:53.495Z,1.30
2022-12-09T22:46:57.849Z,1.20
2022-12-09T22:50:02.234Z,1.20
2022-12-09T22:53:06.880Z,1.20
2022-12-09T22:56:12.337Z,1.20
2022-12-09T22:59:17.442Z,1.20
2022-12-09T23:02:21.544Z,1.10
2022-12-09T23:05:29.093Z,1.30
2022-12-09T23:08:39.120Z,1.40
2022-12-09T23:11:43.645Z,1.30
2022-12-09T23:14:49.776Z,1.30
2022-12-09T23:17:53.949Z,1.20
2022-12-09T23:21:05.050Z,1.20
2022-12-09T23:24:13.775Z,1.30
2022-12-09T23:27:18.129Z,1.20
2022-12-09T23:30:22.805Z,1.20
2022-12-09T23:33:27.109Z,1.30
2022-12-09T23:36:35.844Z,1.30
2022-12-09T23:39:40.036Z,1.30
2022-12-09T23:42:44.634Z,1.30
2022-12-09T23:45:49.384Z,1.30
2022-12-09T23:48:54.957Z,1.30
2022-12-09T23:51:59.813Z,1.30
2022-12-09T23:55:04.818Z,1.20
2022-12-09T23:58:09.196Z,1.20
